createdAt,value
2022-11-10T12:23:01.774Z,26560.00
2022-11-10T12:24:06.045Z,23520.00
2022-11-10T12:25:01.720Z,21024.00
2022-11-10T12:26:01.697Z,21696.00
2022-11-10T12:27:01.688Z,22080.00
2022-11-10T12:28:01.662Z,21920.00
2022-11-10T12:29:01.642Z,22848.00
2022-11-10T12:30:01.630Z,24768.00
2022-11-10T12:31:02.086Z,24928.00
2022-11-10T12:32:01.592Z,25568.00
2022-11-10T12:33:01.568Z,24672.00
2022-11-10T12:34:01.551Z,23520.00
2022-11-10T12:35:01.551Z,22880.00
2022-11-10T12:36:01.517Z,22144.00
2022-11-10T12:37:01.504Z,22176.00
2022-11-10T12:38:01.484Z,22368.00
2022-11-10T12:39:01.533Z,23104.00
2022-11-10T12:40:01.457Z,23520.00
2022-11-10T12:41:01.443Z,23072.00
2022-11-10T12:42:01.411Z,23008.00
2022-11-10T12:43:01.392Z,22400.00
2022-11-10T12:44:01.375Z,21728.00
2022-11-10T12:45:01.376Z,21216.00
2022-11-10T12:46:01.341Z,21312.00
2022-11-10T12:47:01.326Z,21472.00
2022-11-10T12:48:01.302Z,21856.00
2022-11-10T12:49:01.283Z,22688.00
2022-11-10T12:50:01.274Z,22656.00
2022-11-10T12:51:01.261Z,21632.00
2022-11-10T12:52:01.235Z,21184.00
2022-11-10T12:53:03.096Z,22240.00
2022-11-10T12:54:01.203Z,23168.00
2022-11-10T12:55:01.206Z,22496.00
2022-11-10T12:56:01.161Z,21952.00
2022-11-10T12:57:01.160Z,22048.00
2022-11-10T12:58:01.127Z,21920.00
2022-11-10T12:59:01.123Z,21920.00
2022-11-10T13:00:01.115Z,22048.00
2022-11-10T13:01:01.097Z,22688.00
2022-11-10T13:02:01.069Z,23360.00
2022-11-10T13:03:01.054Z,22912.00
2022-11-10T13:04:01.057Z,22944.00
2022-11-10T13:05:01.027Z,22720.00
2022-11-10T13:06:01.017Z,22304.00
2022-11-10T13:07:01.025Z,22176.00
2022-11-10T13:08:00.979Z,22272.00
2022-11-10T13:09:00.949Z,22592.00
2022-11-10T13:10:00.948Z,22560.00
2022-11-10T13:11:00.921Z,21920.00
2022-11-10T13:12:00.910Z,22176.00
2022-11-10T13:13:00.893Z,22688.00
2022-11-10T13:14:00.877Z,22464.00
2022-11-10T13:15:00.874Z,22016.00
2022-11-10T13:16:00.842Z,22144.00
2022-11-10T13:17:00.821Z,22400.00
2022-11-10T13:18:00.802Z,22496.00
2022-11-10T13:19:00.797Z,21888.00
2022-11-10T13:20:14.447Z,21536.00
2022-11-10T13:21:00.767Z,21408.00
2022-11-10T13:22:00.741Z,20928.00
2022-11-10T13:23:00.725Z,21024.00
2022-11-10T13:24:00.715Z,20544.00
2022-11-10T13:25:00.735Z,17344.00
2022-11-10T13:26:00.685Z,11732.00
2022-11-10T13:27:00.673Z,9080.00
2022-11-10T13:28:00.641Z,7484.00
2022-11-10T13:29:00.638Z,6308.00
2022-11-10T13:30:00.647Z,5812.00
2022-11-10T13:31:00.622Z,7280.00
2022-11-10T13:32:00.578Z,11772.00
2022-11-10T13:33:00.567Z,14464.00
2022-11-10T13:34:00.544Z,14624.00
2022-11-10T13:35:00.541Z,15840.00
2022-11-10T13:36:00.529Z,15840.00
2022-11-10T13:37:00.503Z,13532.00
2022-11-10T13:38:00.494Z,11196.00
2022-11-10T13:39:00.468Z,9352.00
2022-11-10T13:40:00.474Z,7200.00
2022-11-10T13:41:00.449Z,5048.00
2022-11-10T13:42:00.433Z,4572.00
2022-11-10T13:43:00.429Z,4520.00
2022-11-10T13:44:00.397Z,4484.00
2022-11-10T13:45:00.383Z,4380.00
2022-11-10T13:46:00.354Z,4428.00
2022-11-10T13:47:00.340Z,4408.00
2022-11-10T13:48:00.323Z,4392.00
